createdAt,value
2022-07-31T00:00:32.061Z,21.40
2022-07-31T00:03:02.570Z,22.60
2022-07-31T00:05:31.180Z,19.20
2022-07-31T00:08:00.875Z,28.20
2022-07-31T00:10:29.169Z,19.70
2022-07-31T00:12:59.155Z,23.30
2022-07-31T00:15:26.632Z,19.40
2022-07-31T00:17:54.104Z,19.70
2022-07-31T00:20:21.752Z,18.40
2022-07-31T00:22:49.303Z,18.00
2022-07-31T00:25:16.681Z,19.10
2022-07-31T00:27:44.008Z,21.20
2022-07-31T00:30:13.373Z,31.90
2022-07-31T00:32:42.020Z,32.20
2022-07-31T00:35:10.543Z,19.50
2022-07-31T00:37:41.670Z,19.60
2022-07-31T00:40:10.622Z,17.30
2022-07-31T00:42:40.617Z,15.80
2022-07-31T00:45:08.790Z,17.70
2022-07-31T00:47:36.868Z,17.80
2022-07-31T00:50:07.513Z,18.90
2022-07-31T00:52:35.236Z,15.90
2022-07-31T00:55:05.816Z,12.40
2022-07-31T00:57:33.394Z,11.80
2022-07-31T01:00:01.342Z,10.80
2022-07-31T01:02:29.654Z,12.20
2022-07-31T01:04:56.666Z,10.70
2022-07-31T01:07:26.353Z,12.60
2022-07-31T01:09:53.776Z,11.80
2022-07-31T01:12:32.136Z,11.10
2022-07-31T01:15:04.571Z,10.60
2022-07-31T01:17:32.043Z,9.30
2022-07-31T01:20:00.151Z,10.50
2022-07-31T01:22:52.700Z,12.90
2022-07-31T01:26:10.728Z,16.80
2022-07-31T01:28:52.917Z,12.90
2022-07-31T01:31:41.872Z,13.70
2022-07-31T01:34:13.229Z,11.40
2022-07-31T01:36:52.298Z,11.40
2022-07-31T01:39:52.694Z,14.00
2022-07-31T01:42:20.154Z,12.40
2022-07-31T01:44:53.229Z,15.50
2022-07-31T01:47:29.903Z,15.30
2022-07-31T01:49:57.282Z,16.50
2022-07-31T01:52:26.041Z,18.30
2022-07-31T01:54:59.515Z,12.90
2022-07-31T01:59:59.164Z,15.20
2022-07-31T02:02:40.427Z,13.50
2022-07-31T02:05:10.635Z,16.40
2022-07-31T02:07:40.575Z,13.70
2022-07-31T02:10:12.142Z,14.50
2022-07-31T02:12:39.379Z,12.70
2022-07-31T02:15:11.811Z,13.20
2022-07-31T02:17:41.082Z,12.30
2022-07-31T02:20:28.007Z,16.40
2022-07-31T02:22:58.466Z,15.10
2022-07-31T02:25:30.871Z,17.70
2022-07-31T02:28:27.598Z,18.90
2022-07-31T02:30:58.520Z,22.40
2022-07-31T02:33:32.918Z,18.20
2022-07-31T02:36:00.364Z,18.90
2022-07-31T02:38:30.041Z,20.00
2022-07-31T02:40:59.982Z,20.10
2022-07-31T02:43:32.755Z,20.90
2022-07-31T02:46:03.669Z,22.90
2022-07-31T02:48:33.244Z,18.70
2022-07-31T02:51:05.272Z,16.50
2022-07-31T02:53:37.668Z,17.60
2022-07-31T02:56:06.095Z,16.30
2022-07-31T02:58:42.055Z,16.80
2022-07-31T03:01:14.658Z,19.70
2022-07-31T03:03:42.459Z,17.60
2022-07-31T03:06:13.874Z,20.90
2022-07-31T03:08:41.540Z,20.00
2022-07-31T03:11:09.285Z,16.00
2022-07-31T03:13:43.715Z,14.90
2022-07-31T03:16:12.000Z,15.60
2022-07-31T03:18:40.215Z,16.70
2022-07-31T03:21:17.516Z,18.20
2022-07-31T03:23:46.393Z,19.40
2022-07-31T03:26:21.375Z,18.70
2022-07-31T03:31:16.460Z,14.40
2022-07-31T03:33:46.782Z,14.40
2022-07-31T03:36:17.888Z,15.50
2022-07-31T03:38:50.242Z,16.00
2022-07-31T03:41:44.368Z,17.30
2022-07-31T03:44:14.893Z,17.30
2022-07-31T03:46:42.644Z,15.60
2022-07-31T03:49:10.146Z,13.20
2022-07-31T03:51:41.145Z,15.50
2022-07-31T03:54:29.883Z,16.70
2022-07-31T03:57:14.908Z,16.70
2022-07-31T03:59:48.271Z,21.40
2022-07-31T04:02:24.551Z,23.70
2022-07-31T04:05:00.619Z,25.10
2022-07-31T04:07:31.354Z,25.60
2022-07-31T04:10:16.167Z,14.50
2022-07-31T04:12:51.019Z,16.40
2022-07-31T04:15:31.268Z,14.20
2022-07-31T04:18:36.561Z,13.50
2022-07-31T04:21:07.449Z,17.20
2022-07-31T04:23:38.399Z,17.70
2022-07-31T04:26:57.589Z,15.10
2022-07-31T04:29:35.318Z,19.10
2022-07-31T04:32:06.277Z,27.30
2022-07-31T04:34:44.059Z,22.40
2022-07-31T04:37:18.903Z,19.60
2022-07-31T04:40:00.347Z,17.80
2022-07-31T04:42:35.571Z,15.90
2022-07-31T04:45:13.336Z,12.00
2022-07-31T04:47:46.937Z,13.40
2022-07-31T04:52:59.527Z,12.10
2022-07-31T04:55:32.046Z,14.40
2022-07-31T04:58:03.511Z,14.60
2022-07-31T05:00:31.362Z,15.00
2022-07-31T05:02:59.185Z,10.40
2022-07-31T05:05:26.656Z,11.80
2022-07-31T05:08:04.308Z,12.60
2022-07-31T05:10:59.559Z,13.00
2022-07-31T05:13:27.916Z,13.80
2022-07-31T05:15:55.157Z,17.70
2022-07-31T05:18:25.445Z,15.20
2022-07-31T05:21:28.527Z,13.70
2022-07-31T05:24:34.701Z,13.60
2022-07-31T05:27:06.442Z,13.60
2022-07-31T05:29:33.943Z,16.00
2022-07-31T05:32:01.558Z,15.10
2022-07-31T05:34:31.899Z,15.90
2022-07-31T05:37:01.676Z,19.50
2022-07-31T05:39:31.565Z,11.10
2022-07-31T05:42:17.210Z,13.90
2022-07-31T05:44:59.858Z,13.30
2022-07-31T05:47:40.250Z,13.50
2022-07-31T05:50:10.095Z,12.20
2022-07-31T05:52:38.271Z,11.30
2022-07-31T05:55:17.915Z,12.00
2022-07-31T05:58:14.819Z,11.10
2022-07-31T06:00:44.904Z,12.30
2022-07-31T06:03:15.605Z,8.70
2022-07-31T06:06:09.096Z,12.00
2022-07-31T06:08:36.655Z,11.60
2022-07-31T06:11:04.616Z,8.90
2022-07-31T06:13:32.228Z,11.70
2022-07-31T06:16:05.369Z,10.10
2022-07-31T06:18:32.836Z,10.00
2022-07-31T06:21:00.146Z,10.30
2022-07-31T06:23:29.666Z,11.40
2022-07-31T06:26:35.109Z,10.80
2022-07-31T06:29:02.481Z,9.60
2022-07-31T06:31:29.939Z,10.70
2022-07-31T06:33:58.327Z,11.80
2022-07-31T06:36:29.942Z,10.30
2022-07-31T06:38:58.180Z,10.30
2022-07-31T06:41:46.756Z,17.00
2022-07-31T06:44:30.229Z,16.70
2022-07-31T06:47:25.543Z,13.20
2022-07-31T06:49:55.947Z,13.30
2022-07-31T06:52:26.774Z,9.20
2022-07-31T06:54:54.448Z,7.90
2022-07-31T06:57:22.014Z,8.80
2022-07-31T06:59:50.122Z,13.30
2022-07-31T07:02:17.378Z,12.70
2022-07-31T07:04:57.403Z,10.20
2022-07-31T07:07:34.597Z,12.90
2022-07-31T07:10:02.234Z,9.00
2022-07-31T07:13:08.977Z,12.90
2022-07-31T07:15:36.567Z,8.30
2022-07-31T07:18:04.684Z,8.50
2022-07-31T07:20:50.439Z,10.30
2022-07-31T07:23:18.796Z,9.80
2022-07-31T07:25:52.738Z,8.40
2022-07-31T07:28:30.120Z,7.60
2022-07-31T07:30:58.694Z,8.60
2022-07-31T07:33:41.022Z,8.70
2022-07-31T07:36:23.124Z,8.30
2022-07-31T07:39:03.544Z,8.20
2022-07-31T07:41:32.339Z,12.20
2022-07-31T07:44:00.020Z,9.60
2022-07-31T07:46:27.697Z,9.80
2022-07-31T07:48:57.742Z,7.00
2022-07-31T07:51:58.929Z,6.70
2022-07-31T07:54:36.648Z,7.10
2022-07-31T07:57:26.845Z,8.50
2022-07-31T08:00:11.006Z,7.90
2022-07-31T08:03:46.840Z,7.00
2022-07-31T08:05:33.311Z,8.30
2022-07-31T08:08:00.804Z,9.40
2022-07-31T08:10:46.666Z,6.40
2022-07-31T08:13:23.177Z,6.60
2022-07-31T08:16:22.763Z,6.20
2022-07-31T08:18:54.836Z,7.30
2022-07-31T08:21:22.728Z,8.10
2022-07-31T08:23:53.313Z,7.80
2022-07-31T08:28:50.586Z,9.50
2022-07-31T08:31:20.254Z,6.70
2022-07-31T08:34:31.722Z,6.90
2022-07-31T08:38:02.770Z,5.20
2022-07-31T08:39:50.560Z,6.20
2022-07-31T08:42:18.232Z,7.20
2022-07-31T08:44:45.689Z,6.80
2022-07-31T08:47:17.379Z,7.20
2022-07-31T08:49:48.576Z,7.20
2022-07-31T08:52:21.377Z,7.20
2022-07-31T08:55:07.868Z,7.50
2022-07-31T08:57:38.124Z,5.30
2022-07-31T09:00:09.867Z,8.20
2022-07-31T09:02:39.224Z,7.10
2022-07-31T09:05:27.377Z,5.80
2022-07-31T09:08:14.830Z,6.80
2022-07-31T09:10:49.417Z,8.30
2022-07-31T09:13:18.239Z,7.70
2022-07-31T09:15:46.659Z,7.60
2022-07-31T09:18:19.001Z,8.00
2022-07-31T09:21:04.517Z,6.80
2022-07-31T09:23:35.158Z,6.00
2022-07-31T09:28:45.049Z,7.10
2022-07-31T09:31:14.032Z,12.20
2022-07-31T09:33:46.010Z,12.10
2022-07-31T09:36:33.043Z,13.20
2022-07-31T09:39:27.074Z,11.80
2022-07-31T09:42:16.329Z,5.00
2022-07-31T09:45:04.775Z,6.90
2022-07-31T09:47:33.515Z,6.00
2022-07-31T09:50:04.396Z,7.00
2022-07-31T09:52:33.014Z,6.00
2022-07-31T09:55:16.249Z,7.00
2022-07-31T09:57:55.781Z,6.20
2022-07-31T10:00:23.278Z,6.90
2022-07-31T10:02:51.513Z,4.60
2022-07-31T10:05:18.733Z,6.10
2022-07-31T10:07:46.204Z,5.80
2022-07-31T10:10:18.537Z,6.00
2022-07-31T10:13:07.008Z,5.80
2022-07-31T10:18:35.906Z,8.70
2022-07-31T10:21:40.286Z,9.10
2022-07-31T10:24:14.080Z,5.20
2022-07-31T10:27:10.756Z,7.00
2022-07-31T10:29:32.913Z,8.90
2022-07-31T10:32:02.211Z,7.30
2022-07-31T10:34:30.523Z,7.70
2022-07-31T10:37:32.619Z,6.90
2022-07-31T10:40:34.159Z,7.80
2022-07-31T10:43:18.646Z,8.30
2022-07-31T10:45:55.953Z,6.40
2022-07-31T10:48:52.794Z,5.30
2022-07-31T10:51:50.221Z,6.30
2022-07-31T10:54:44.529Z,7.50
2022-07-31T10:57:35.102Z,7.00
2022-07-31T11:03:22.121Z,6.60
2022-07-31T11:06:08.319Z,6.70
2022-07-31T11:08:59.067Z,5.40
2022-07-31T11:11:53.149Z,5.50
2022-07-31T11:14:40.511Z,5.10
2022-07-31T11:18:25.090Z,5.30
2022-07-31T11:20:39.951Z,5.40
2022-07-31T11:23:08.559Z,6.30
2022-07-31T11:25:36.815Z,5.50
2022-07-31T11:28:11.640Z,5.70
2022-07-31T11:30:53.128Z,6.80
2022-07-31T11:33:41.551Z,5.20
2022-07-31T11:36:24.729Z,6.30
2022-07-31T11:38:54.230Z,5.20
2022-07-31T11:41:22.821Z,3.80
2022-07-31T11:43:51.783Z,4.00
2022-07-31T11:46:28.981Z,4.40
2022-07-31T11:48:56.129Z,4.30
2022-07-31T11:51:23.596Z,4.70
2022-07-31T11:53:57.135Z,8.00
2022-07-31T11:56:26.187Z,5.40
2022-07-31T11:58:54.975Z,3.90
2022-07-31T12:01:29.540Z,4.30
2022-07-31T12:03:57.588Z,4.00
2022-07-31T12:06:36.636Z,6.20
2022-07-31T12:09:04.105Z,4.20
2022-07-31T12:11:31.139Z,4.30
2022-07-31T12:13:59.577Z,5.40
2022-07-31T12:16:26.829Z,4.30
2022-07-31T12:19:00.444Z,4.80
2022-07-31T12:21:35.335Z,4.60
2022-07-31T12:24:02.571Z,4.30
2022-07-31T12:26:30.403Z,4.60
2022-07-31T12:29:01.620Z,4.00
2022-07-31T12:31:29.473Z,4.40
2022-07-31T12:33:56.687Z,4.60
2022-07-31T12:36:24.045Z,6.00
2022-07-31T12:39:01.194Z,4.40
2022-07-31T12:41:29.312Z,4.20
2022-07-31T12:43:56.634Z,4.20
2022-07-31T12:46:37.909Z,5.30
2022-07-31T12:49:06.524Z,4.40
2022-07-31T12:51:44.667Z,4.70
2022-07-31T12:54:17.189Z,4.60
2022-07-31T12:56:44.965Z,5.10
2022-07-31T12:59:12.465Z,4.60
2022-07-31T13:01:40.013Z,7.80
2022-07-31T13:04:07.854Z,4.90
2022-07-31T13:06:45.599Z,5.20
2022-07-31T13:09:12.793Z,4.60
2022-07-31T13:11:46.034Z,4.10
2022-07-31T13:14:16.867Z,3.90
2022-07-31T13:16:44.947Z,4.50
2022-07-31T13:19:13.215Z,4.50
2022-07-31T13:21:49.520Z,5.80
2022-07-31T13:24:18.824Z,5.50
2022-07-31T13:26:47.595Z,6.50
2022-07-31T13:29:14.736Z,4.80
2022-07-31T13:31:42.406Z,10.20
2022-07-31T13:34:09.610Z,3.20
2022-07-31T13:36:38.954Z,4.10
2022-07-31T13:39:07.483Z,6.50
2022-07-31T13:41:35.773Z,4.10
2022-07-31T13:44:03.499Z,6.30
2022-07-31T13:46:31.850Z,3.60
2022-07-31T13:49:02.017Z,3.10
2022-07-31T13:51:30.174Z,3.80
2022-07-31T13:53:57.322Z,6.10
2022-07-31T13:56:38.769Z,4.30
2022-07-31T13:59:13.385Z,3.20
2022-07-31T14:02:13.438Z,2.40
2022-07-31T14:04:32.485Z,3.80
2022-07-31T14:07:06.832Z,5.30
2022-07-31T14:09:35.161Z,2.90
2022-07-31T14:12:04.515Z,8.10
2022-07-31T14:14:33.546Z,5.70
2022-07-31T14:17:01.363Z,8.00
2022-07-31T14:19:28.540Z,15.00
2022-07-31T14:21:57.202Z,4.90
2022-07-31T14:24:27.498Z,3.90
2022-07-31T14:26:54.668Z,3.80
2022-07-31T14:29:21.998Z,2.60
2022-07-31T14:31:49.523Z,4.20
2022-07-31T14:34:16.762Z,4.50
2022-07-31T14:36:44.109Z,5.90
2022-07-31T14:39:11.312Z,9.30
2022-07-31T14:41:38.400Z,4.80
2022-07-31T14:44:05.900Z,4.60
2022-07-31T14:46:33.945Z,5.50
2022-07-31T14:49:02.736Z,4.90
2022-07-31T14:51:30.195Z,2.00
2022-07-31T14:53:57.631Z,1.60
2022-07-31T14:56:45.360Z,2.50
2022-07-31T14:59:12.857Z,3.20
2022-07-31T15:01:40.148Z,5.20
2022-07-31T15:04:07.250Z,2.80
2022-07-31T15:06:48.561Z,2.80
2022-07-31T15:09:22.681Z,2.60
2022-07-31T15:11:59.890Z,4.10
2022-07-31T15:14:30.125Z,4.70
2022-07-31T15:16:57.831Z,3.10
2022-07-31T15:19:25.139Z,2.60
2022-07-31T15:22:10.283Z,6.60
2022-07-31T15:24:45.553Z,6.00
2022-07-31T15:27:22.035Z,7.10
2022-07-31T15:30:00.441Z,3.90
2022-07-31T15:32:38.905Z,3.50
2022-07-31T15:35:08.388Z,4.70
2022-07-31T15:37:39.759Z,4.40
2022-07-31T15:40:09.694Z,2.70
2022-07-31T15:42:40.566Z,4.20
2022-07-31T15:45:12.392Z,3.90
2022-07-31T15:47:40.540Z,3.00
2022-07-31T15:50:10.034Z,5.10
2022-07-31T15:52:37.331Z,5.70
2022-07-31T15:55:05.145Z,6.10
2022-07-31T15:57:32.553Z,4.20
2022-07-31T16:00:00.043Z,3.90
2022-07-31T16:02:27.371Z,3.40
2022-07-31T16:04:56.572Z,3.50
2022-07-31T16:08:30.448Z,14.70
2022-07-31T16:10:17.854Z,20.80
2022-07-31T16:12:47.514Z,8.00
2022-07-31T16:15:16.091Z,6.90
2022-07-31T16:17:43.646Z,7.90
2022-07-31T16:20:25.974Z,7.40
2022-07-31T16:22:55.650Z,3.90
2022-07-31T16:25:23.281Z,4.30
2022-07-31T16:27:50.605Z,2.80
2022-07-31T16:30:17.859Z,7.50
2022-07-31T16:32:45.112Z,2.70
2022-07-31T16:35:12.776Z,4.00
2022-07-31T16:37:50.597Z,4.50
2022-07-31T16:40:30.514Z,5.90
2022-07-31T16:43:03.668Z,6.30
2022-07-31T16:45:51.269Z,3.40
2022-07-31T16:48:19.144Z,4.40
2022-07-31T16:50:52.954Z,6.30
2022-07-31T16:54:10.299Z,2.80
2022-07-31T16:56:10.699Z,3.80
2022-07-31T16:58:38.457Z,4.00
2022-07-31T17:01:53.093Z,4.00
2022-07-31T17:04:00.262Z,5.00
2022-07-31T17:06:34.705Z,3.40
2022-07-31T17:09:16.189Z,2.60
2022-07-31T17:11:46.162Z,6.00
2022-07-31T17:14:13.390Z,4.10
2022-07-31T17:16:44.794Z,3.70
2022-07-31T17:19:14.853Z,3.10
2022-07-31T17:21:44.428Z,5.10
2022-07-31T17:24:15.996Z,3.80
2022-07-31T17:26:44.201Z,3.30
2022-07-31T17:29:12.499Z,4.20
2022-07-31T17:31:39.730Z,5.10
2022-07-31T17:34:09.202Z,4.60
2022-07-31T17:36:37.285Z,10.20
2022-07-31T17:39:05.547Z,9.00
2022-07-31T17:41:32.734Z,5.00
2022-07-31T17:44:01.244Z,4.90
2022-07-31T17:47:07.276Z,4.10
2022-07-31T17:49:19.557Z,5.70
2022-07-31T17:51:59.137Z,5.40
2022-07-31T17:54:28.723Z,7.80
2022-07-31T17:56:56.143Z,4.60
2022-07-31T17:59:23.446Z,5.50
2022-07-31T18:01:52.370Z,3.60
2022-07-31T18:04:21.453Z,7.40
2022-07-31T18:06:54.231Z,5.20
2022-07-31T18:09:23.698Z,4.40
2022-07-31T18:11:51.633Z,5.50
2022-07-31T18:14:18.949Z,6.00
2022-07-31T18:16:46.943Z,4.00
2022-07-31T18:19:14.363Z,5.70
2022-07-31T18:21:41.851Z,4.80
2022-07-31T18:24:09.002Z,5.10
2022-07-31T18:26:37.558Z,5.30
2022-07-31T18:29:05.440Z,5.50
2022-07-31T18:31:35.943Z,7.30
2022-07-31T18:34:06.483Z,6.30
2022-07-31T18:36:35.103Z,4.50
2022-07-31T18:39:02.541Z,6.90
2022-07-31T18:41:29.882Z,4.20
2022-07-31T18:43:57.579Z,3.00
2022-07-31T18:46:25.029Z,3.10
2022-07-31T18:48:55.502Z,5.20
2022-07-31T18:51:26.424Z,7.30
2022-07-31T18:56:25.562Z,4.10
2022-07-31T18:58:53.493Z,3.70
2022-07-31T19:01:20.904Z,2.30
2022-07-31T19:03:48.396Z,6.70
2022-07-31T19:06:16.235Z,4.50
2022-07-31T19:08:43.552Z,3.60
2022-07-31T19:11:12.192Z,4.00
2022-07-31T19:13:39.630Z,5.50
2022-07-31T19:16:06.923Z,3.50
2022-07-31T19:18:34.784Z,4.00
2022-07-31T19:21:22.761Z,4.80
2022-07-31T19:23:49.419Z,4.90
2022-07-31T19:26:16.615Z,3.10
2022-07-31T19:28:43.929Z,3.90
2022-07-31T19:31:11.720Z,7.50
2022-07-31T19:33:39.399Z,4.40
2022-07-31T19:36:07.039Z,5.10
2022-07-31T19:38:38.117Z,4.10
2022-07-31T19:41:05.326Z,3.00
2022-07-31T19:43:33.908Z,1.90
2022-07-31T19:46:11.264Z,2.60
2022-07-31T19:48:45.646Z,3.00
2022-07-31T19:51:13.535Z,2.60
2022-07-31T19:53:41.924Z,2.50
2022-07-31T19:56:10.854Z,3.80
2022-07-31T19:58:38.618Z,3.00
2022-07-31T20:01:06.729Z,2.40
2022-07-31T20:03:36.436Z,3.40
2022-07-31T20:06:04.075Z,3.30
2022-07-31T20:08:33.318Z,2.50
2022-07-31T20:11:04.142Z,2.40
2022-07-31T20:13:32.903Z,2.60
2022-07-31T20:16:00.495Z,3.30
2022-07-31T20:18:28.755Z,2.20
2022-07-31T20:20:57.911Z,3.20
2022-07-31T20:23:26.127Z,3.30
2022-07-31T20:25:53.559Z,2.40
2022-07-31T20:28:21.042Z,3.80
2022-07-31T20:30:48.319Z,3.40
2022-07-31T20:33:15.470Z,4.90
2022-07-31T20:35:47.920Z,2.40
2022-07-31T20:38:22.974Z,2.10
2022-07-31T20:40:53.850Z,3.50
2022-07-31T20:43:23.589Z,3.90
2022-07-31T20:45:51.646Z,3.60
2022-07-31T20:48:19.037Z,5.00
2022-07-31T20:50:48.245Z,4.30
2022-07-31T20:53:16.789Z,2.50
2022-07-31T20:55:49.853Z,2.10
2022-07-31T20:58:21.372Z,2.30
2022-07-31T21:00:49.570Z,2.40
2022-07-31T21:03:17.637Z,3.90
2022-07-31T21:05:45.263Z,4.70
2022-07-31T21:08:12.684Z,3.00
2022-07-31T21:10:39.880Z,1.90
2022-07-31T21:13:08.663Z,2.50
2022-07-31T21:15:43.129Z,3.40
2022-07-31T21:18:15.590Z,2.60
2022-07-31T21:20:50.089Z,3.00
2022-07-31T21:23:23.137Z,3.40
2022-07-31T21:28:18.736Z,2.60
2022-07-31T21:30:46.298Z,3.40
2022-07-31T21:33:13.604Z,3.70
2022-07-31T21:35:41.429Z,3.40
2022-07-31T21:38:12.244Z,2.60
2022-07-31T21:40:40.396Z,2.80
2022-07-31T21:43:08.389Z,3.80
2022-07-31T21:45:50.458Z,2.90
2022-07-31T21:48:25.149Z,1.90
2022-07-31T21:50:52.992Z,2.90
2022-07-31T21:53:20.092Z,4.40
2022-07-31T21:55:47.527Z,2.00
2022-07-31T21:58:14.716Z,2.20
2022-07-31T22:00:41.991Z,2.70
2022-07-31T22:03:09.251Z,3.00
2022-07-31T22:05:57.764Z,4.50
2022-07-31T22:08:25.001Z,3.50
2022-07-31T22:10:52.537Z,3.60
2022-07-31T22:13:19.858Z,1.90
2022-07-31T22:15:58.385Z,3.00
2022-07-31T22:18:29.311Z,3.80
2022-07-31T22:20:57.232Z,3.10
2022-07-31T22:23:25.548Z,3.50
2022-07-31T22:25:52.856Z,4.40
2022-07-31T22:28:21.202Z,4.60
2022-07-31T22:30:49.037Z,2.40
2022-07-31T22:33:16.377Z,3.80
2022-07-31T22:35:43.924Z,4.40
2022-07-31T22:38:14.063Z,4.10
2022-07-31T22:40:42.617Z,4.10
2022-07-31T22:44:10.268Z,7.70
2022-07-31T22:46:00.148Z,3.60
2022-07-31T22:48:27.956Z,3.50
2022-07-31T22:50:55.878Z,4.00
2022-07-31T22:53:24.191Z,6.10
2022-07-31T22:55:53.236Z,5.80
2022-07-31T22:58:20.680Z,5.10
2022-07-31T23:00:48.291Z,3.60
2022-07-31T23:03:15.995Z,3.80
2022-07-31T23:06:02.814Z,4.10
2022-07-31T23:08:30.498Z,3.30
2022-07-31T23:10:57.751Z,3.30
2022-07-31T23:13:25.437Z,4.20
2022-07-31T23:15:52.588Z,5.70
2022-07-31T23:18:20.040Z,5.00
2022-07-31T23:20:47.341Z,3.20
2022-07-31T23:23:14.599Z,4.00
2022-07-31T23:25:41.650Z,4.60
2022-07-31T23:28:08.748Z,4.30
2022-07-31T23:30:35.987Z,4.70
2022-07-31T23:33:03.823Z,4.90
2022-07-31T23:35:31.098Z,3.80
2022-07-31T23:37:58.701Z,3.20
2022-07-31T23:40:25.811Z,5.60
2022-07-31T23:42:53.153Z,5.90
2022-07-31T23:45:20.304Z,6.30
2022-07-31T23:47:48.932Z,4.40
2022-07-31T23:50:16.347Z,4.80
2022-07-31T23:52:43.785Z,3.60
2022-07-31T23:55:11.131Z,2.80
2022-07-31T23:57:38.430Z,6.60
